sensor_id;sensor_type;location;lat;lon;timestamp;temperature;humidity
21487;DHT22;10905;50.822;4.336;2023-07-09T00:00:05;26.60;99.90
21487;DHT22;10905;50.822;4.336;2023-07-09T00:02:31;26.60;99.90
21487;DHT22;10905;50.822;4.336;2023-07-09T00:04:57;26.50;99.90
21487;DHT22;10905;50.822;4.336;2023-07-09T00:07:31;26.40;99.90
21487;DHT22;10905;50.822;4.336;2023-07-09T00:09:57;26.40;99.90
21487;DHT22;10905;50.822;4.336;2023-07-09T00:12:23;26.40;99.90
21487;DHT22;10905;50.822;4.336;2023-07-09T00:14:49;26.40;99.90
21487;DHT22;10905;50.822;4.336;2023-07-09T00:17:33;26.30;99.90
21487;DHT22;10905;50.822;4.336;2023-07-09T00:19:59;26.40;99.90
21487;DHT22;10905;50.822;4.336;2023-07-09T00:22:25;26.40;99.90
21487;DHT22;10905;50.822;4.336;2023-07-09T00:24:55;26.40;99.90
21487;DHT22;10905;50.822;4.336;2023-07-09T00:27:26;26.30;99.90
21487;DHT22;10905;50.822;4.336;2023-07-09T00:29:52;26.20;99.90
21487;DHT22;10905;50.822;4.336;2023-07-09T00:32:19;26.30;99.90
21487;DHT22;10905;50.822;4.336;2023-07-09T00:34:50;26.20;99.90
21487;DHT22;10905;50.822;4.336;2023-07-09T00:37:17;26.20;99.90
21487;DHT22;10905;50.822;4.336;2023-07-09T00:39:45;26.20;99.90
21487;DHT22;10905;50.822;4.336;2023-07-09T00:42:19;26.10;99.90
21487;DHT22;10905;50.822;4.336;2023-07-09T00:44:47;26.00;99.90
21487;DHT22;10905;50.822;4.336;2023-07-09T00:50:16;26.10;99.90
21487;DHT22;10905;50.822;4.336;2023-07-09T00:52:51;26.20;99.90
21487;DHT22;10905;50.822;4.336;2023-07-09T00:55:23;26.20;99.90
21487;DHT22;10905;50.822;4.336;2023-07-09T00:57:53;26.10;99.90
21487;DHT22;10905;50.822;4.336;2023-07-09T01:00:27;26.10;99.90
21487;DHT22;10905;50.822;4.336;2023-07-09T01:02:55;26.10;99.90
21487;DHT22;10905;50.822;4.336;2023-07-09T01:05:23;26.00;99.90
21487;DHT22;10905;50.822;4.336;2023-07-09T01:07:50;25.90;99.90
21487;DHT22;10905;50.822;4.336;2023-07-09T01:10:16;25.80;99.90
21487;DHT22;10905;50.822;4.336;2023-07-09T01:12:43;25.70;99.90
21487;DHT22;10905;50.822;4.336;2023-07-09T01:15:10;25.70;99.90
21487;DHT22;10905;50.822;4.336;2023-07-09T01:17:37;25.60;99.90
21487;DHT22;10905;50.822;4.336;2023-07-09T01:20:02;25.60;99.90
21487;DHT22;10905;50.822;4.336;2023-07-09T01:22:28;25.60;99.90
21487;DHT22;10905;50.822;4.336;2023-07-09T01:25:02;25.50;99.90
21487;DHT22;10905;50.822;4.336;2023-07-09T01:27:37;25.50;99.90
21487;DHT22;10905;50.822;4.336;2023-07-09T01:30:13;25.40;99.90
21487;DHT22;10905;50.822;4.336;2023-07-09T01:32:42;25.40;99.90
21487;DHT22;10905;50.822;4.336;2023-07-09T01:35:13;25.40;99.90
21487;DHT22;10905;50.822;4.336;2023-07-09T01:37:41;25.40;99.90
21487;DHT22;10905;50.822;4.336;2023-07-09T01:40:09;25.40;99.90
21487;DHT22;10905;50.822;4.336;2023-07-09T01:42:36;25.40;99.90
21487;DHT22;10905;50.822;4.336;2023-07-09T01:45:05;25.40;99.90
21487;DHT22;10905;50.822;4.336;2023-07-09T01:47:31;25.40;99.90
21487;DHT22;10905;50.822;4.336;2023-07-09T01:49:57;25.40;99.90
21487;DHT22;10905;50.822;4.336;2023-07-09T01:52:29;25.40;99.90
21487;DHT22;10905;50.822;4.336;2023-07-09T01:54:56;25.50;99.90
21487;DHT22;10905;50.822;4.336;2023-07-09T01:57:27;25.50;99.90
21487;DHT22;10905;50.822;4.336;2023-07-09T02:00:00;25.50;99.90
21487;DHT22;10905;50.822;4.336;2023-07-09T02:02:26;25.50;99.90
21487;DHT22;10905;50.822;4.336;2023-07-09T02:04:54;25.60;99.90
21487;DHT22;10905;50.822;4.336;2023-07-09T02:07:21;25.80;99.90
21487;DHT22;10905;50.822;4.336;2023-07-09T02:09:48;25.70;99.90
21487;DHT22;10905;50.822;4.336;2023-07-09T02:12:15;25.70;99.90
21487;DHT22;10905;50.822;4.336;2023-07-09T02:14:42;25.70;99.90
21487;DHT22;10905;50.822;4.336;2023-07-09T02:17:09;25.70;99.90
21487;DHT22;10905;50.822;4.336;2023-07-09T02:19:35;25.70;99.90
21487;DHT22;10905;50.822;4.336;2023-07-09T02:22:01;25.70;99.90
21487;DHT22;10905;50.822;4.336;2023-07-09T02:24:26;25.60;99.90
21487;DHT22;10905;50.822;4.336;2023-07-09T02:26:56;25.70;99.90
21487;DHT22;10905;50.822;4.336;2023-07-09T02:29:23;25.70;99.90
21487;DHT22;10905;50.822;4.336;2023-07-09T02:31:50;25.70;99.90
21487;DHT22;10905;50.822;4.336;2023-07-09T02:34:17;25.70;99.90
21487;DHT22;10905;50.822;4.336;2023-07-09T02:36:43;25.60;99.90
21487;DHT22;10905;50.822;4.336;2023-07-09T02:39:10;25.60;99.90
21487;DHT22;10905;50.822;4.336;2023-07-09T02:41:36;25.60;99.90
21487;DHT22;10905;50.822;4.336;2023-07-09T02:44:02;25.60;99.90
21487;DHT22;10905;50.822;4.336;2023-07-09T02:46:28;25.60;99.90
21487;DHT22;10905;50.822;4.336;2023-07-09T02:48:54;25.50;99.90
21487;DHT22;10905;50.822;4.336;2023-07-09T02:51:20;25.60;99.90
21487;DHT22;10905;50.822;4.336;2023-07-09T02:53:45;25.60;99.90
21487;DHT22;10905;50.822;4.336;2023-07-09T02:56:11;25.60;99.90
21487;DHT22;10905;50.822;4.336;2023-07-09T02:58:36;25.60;99.90
21487;DHT22;10905;50.822;4.336;2023-07-09T03:01:02;25.60;99.90
21487;DHT22;10905;50.822;4.336;2023-07-09T03:03:29;25.60;99.90
21487;DHT22;10905;50.822;4.336;2023-07-09T03:05:55;25.50;99.90
21487;DHT22;10905;50.822;4.336;2023-07-09T03:08:21;25.50;99.90
21487;DHT22;10905;50.822;4.336;2023-07-09T03:10:46;25.50;99.90
21487;DHT22;10905;50.822;4.336;2023-07-09T03:13:12;25.50;99.90
21487;DHT22;10905;50.822;4.336;2023-07-09T03:15:38;25.50;99.90
21487;DHT22;10905;50.822;4.336;2023-07-09T03:18:03;25.60;99.90
21487;DHT22;10905;50.822;4.336;2023-07-09T03:20:29;25.50;99.90
21487;DHT22;10905;50.822;4.336;2023-07-09T03:22:54;25.50;99.90
21487;DHT22;10905;50.822;4.336;2023-07-09T03:25:20;25.40;99.90
21487;DHT22;10905;50.822;4.336;2023-07-09T03:27:49;25.50;99.90
21487;DHT22;10905;50.822;4.336;2023-07-09T03:30:15;25.50;99.90
21487;DHT22;10905;50.822;4.336;2023-07-09T03:32:41;25.40;99.90
21487;DHT22;10905;50.822;4.336;2023-07-09T03:35:07;25.40;99.90
21487;DHT22;10905;50.822;4.336;2023-07-09T03:37:33;25.40;99.90
21487;DHT22;10905;50.822;4.336;2023-07-09T03:40:00;25.30;99.90
21487;DHT22;10905;50.822;4.336;2023-07-09T03:42:25;25.10;99.90
21487;DHT22;10905;50.822;4.336;2023-07-09T03:44:51;25.10;99.90
21487;DHT22;10905;50.822;4.336;2023-07-09T03:47:16;25.10;99.90
21487;DHT22;10905;50.822;4.336;2023-07-09T03:49:43;25.20;99.90
21487;DHT22;10905;50.822;4.336;2023-07-09T03:52:09;25.10;99.90
21487;DHT22;10905;50.822;4.336;2023-07-09T03:54:35;25.00;99.90
21487;DHT22;10905;50.822;4.336;2023-07-09T03:57:00;25.10;99.90
21487;DHT22;10905;50.822;4.336;2023-07-09T03:59:26;25.10;99.90
21487;DHT22;10905;50.822;4.336;2023-07-09T04:01:51;25.10;99.90
21487;DHT22;10905;50.822;4.336;2023-07-09T04:04:17;25.00;99.90
21487;DHT22;10905;50.822;4.336;2023-07-09T04:06:46;24.90;99.90
21487;DHT22;10905;50.822;4.336;2023-07-09T04:09:12;24.70;99.90
21487;DHT22;10905;50.822;4.336;2023-07-09T04:11:38;24.60;99.90
21487;DHT22;10905;50.822;4.336;2023-07-09T04:14:03;24.40;99.90
21487;DHT22;10905;50.822;4.336;2023-07-09T04:16:29;24.40;99.90
21487;DHT22;10905;50.822;4.336;2023-07-09T04:18:54;24.40;99.90
21487;DHT22;10905;50.822;4.336;2023-07-09T04:21:20;24.30;99.90
21487;DHT22;10905;50.822;4.336;2023-07-09T04:23:46;24.30;99.90
21487;DHT22;10905;50.822;4.336;2023-07-09T04:26:14;24.20;99.90
21487;DHT22;10905;50.822;4.336;2023-07-09T04:28:40;24.20;99.90
21487;DHT22;10905;50.822;4.336;2023-07-09T04:31:06;24.10;99.90
21487;DHT22;10905;50.822;4.336;2023-07-09T04:33:31;24.10;99.90
21487;DHT22;10905;50.822;4.336;2023-07-09T04:35:57;24.10;99.90
21487;DHT22;10905;50.822;4.336;2023-07-09T04:38:23;24.20;99.90
21487;DHT22;10905;50.822;4.336;2023-07-09T04:40:49;24.30;99.90
21487;DHT22;10905;50.822;4.336;2023-07-09T04:43:15;24.30;99.90
21487;DHT22;10905;50.822;4.336;2023-07-09T04:45:40;24.30;99.90
21487;DHT22;10905;50.822;4.336;2023-07-09T04:48:06;24.30;99.90
21487;DHT22;10905;50.822;4.336;2023-07-09T04:50:32;24.30;99.90
21487;DHT22;10905;50.822;4.336;2023-07-09T04:52:59;24.30;99.90
21487;DHT22;10905;50.822;4.336;2023-07-09T04:55:24;24.30;99.90
21487;DHT22;10905;50.822;4.336;2023-07-09T04:57:52;24.20;99.90
21487;DHT22;10905;50.822;4.336;2023-07-09T05:00:17;24.30;99.90
21487;DHT22;10905;50.822;4.336;2023-07-09T05:02:43;24.30;99.90
21487;DHT22;10905;50.822;4.336;2023-07-09T05:05:09;24.30;99.90
21487;DHT22;10905;50.822;4.336;2023-07-09T05:07:34;24.30;99.90
21487;DHT22;10905;50.822;4.336;2023-07-09T05:10:01;24.30;99.90
21487;DHT22;10905;50.822;4.336;2023-07-09T05:12:27;24.40;99.90
21487;DHT22;10905;50.822;4.336;2023-07-09T05:14:54;24.50;99.90
21487;DHT22;10905;50.822;4.336;2023-07-09T05:17:22;24.50;99.90
21487;DHT22;10905;50.822;4.336;2023-07-09T05:19:48;24.60;99.90
21487;DHT22;10905;50.822;4.336;2023-07-09T05:22:13;24.70;99.90
21487;DHT22;10905;50.822;4.336;2023-07-09T05:24:39;24.70;99.90
21487;DHT22;10905;50.822;4.336;2023-07-09T05:27:04;24.80;99.90
21487;DHT22;10905;50.822;4.336;2023-07-09T05:29:30;24.90;99.90
21487;DHT22;10905;50.822;4.336;2023-07-09T05:31:55;25.00;99.90
21487;DHT22;10905;50.822;4.336;2023-07-09T05:34:21;25.00;99.90
21487;DHT22;10905;50.822;4.336;2023-07-09T05:36:47;25.10;99.90
21487;DHT22;10905;50.822;4.336;2023-07-09T05:39:13;25.10;99.90
21487;DHT22;10905;50.822;4.336;2023-07-09T05:41:39;25.10;99.90
21487;DHT22;10905;50.822;4.336;2023-07-09T05:44:05;25.10;99.90
21487;DHT22;10905;50.822;4.336;2023-07-09T05:46:34;25.20;99.90
21487;DHT22;10905;50.822;4.336;2023-07-09T05:49:01;25.00;99.90
21487;DHT22;10905;50.822;4.336;2023-07-09T05:51:28;25.00;99.90
21487;DHT22;10905;50.822;4.336;2023-07-09T05:53:53;24.90;99.90
21487;DHT22;10905;50.822;4.336;2023-07-09T05:56:19;24.90;99.90
21487;DHT22;10905;50.822;4.336;2023-07-09T05:58:44;25.00;99.90
21487;DHT22;10905;50.822;4.336;2023-07-09T06:01:10;25.20;99.90
21487;DHT22;10905;50.822;4.336;2023-07-09T06:03:36;25.30;99.90
21487;DHT22;10905;50.822;4.336;2023-07-09T06:06:01;25.30;99.90
21487;DHT22;10905;50.822;4.336;2023-07-09T06:08:27;25.30;99.90
21487;DHT22;10905;50.822;4.336;2023-07-09T06:10:58;25.20;99.90
21487;DHT22;10905;50.822;4.336;2023-07-09T06:13:24;25.30;99.90
21487;DHT22;10905;50.822;4.336;2023-07-09T06:15:52;25.20;99.90
21487;DHT22;10905;50.822;4.336;2023-07-09T06:18:19;25.30;99.90
21487;DHT22;10905;50.822;4.336;2023-07-09T06:20:50;25.30;99.90
21487;DHT22;10905;50.822;4.336;2023-07-09T06:23:16;25.20;99.90
21487;DHT22;10905;50.822;4.336;2023-07-09T06:25:43;25.20;99.90
21487;DHT22;10905;50.822;4.336;2023-07-09T06:28:13;25.30;99.90
21487;DHT22;10905;50.822;4.336;2023-07-09T06:30:38;25.30;99.90
21487;DHT22;10905;50.822;4.336;2023-07-09T06:33:04;25.30;99.90
21487;DHT22;10905;50.822;4.336;2023-07-09T06:35:29;25.40;99.90
21487;DHT22;10905;50.822;4.336;2023-07-09T06:37:55;25.20;99.90
21487;DHT22;10905;50.822;4.336;2023-07-09T06:40:21;25.20;99.90
21487;DHT22;10905;50.822;4.336;2023-07-09T06:42:46;25.30;99.90
21487;DHT22;10905;50.822;4.336;2023-07-09T06:45:12;25.30;99.90
21487;DHT22;10905;50.822;4.336;2023-07-09T06:47:37;25.40;99.90
21487;DHT22;10905;50.822;4.336;2023-07-09T06:50:03;25.50;99.90
21487;DHT22;10905;50.822;4.336;2023-07-09T06:52:29;25.70;99.90
21487;DHT22;10905;50.822;4.336;2023-07-09T06:54:55;25.70;99.90
21487;DHT22;10905;50.822;4.336;2023-07-09T06:57:20;25.80;99.90
21487;DHT22;10905;50.822;4.336;2023-07-09T06:59:46;25.80;99.90
21487;DHT22;10905;50.822;4.336;2023-07-09T07:02:11;25.80;99.90
21487;DHT22;10905;50.822;4.336;2023-07-09T07:04:37;25.60;99.90
21487;DHT22;10905;50.822;4.336;2023-07-09T07:07:03;25.50;99.90
21487;DHT22;10905;50.822;4.336;2023-07-09T07:09:28;25.40;99.90
21487;DHT22;10905;50.822;4.336;2023-07-09T07:11:54;25.30;99.90
21487;DHT22;10905;50.822;4.336;2023-07-09T07:14:20;25.40;99.90
21487;DHT22;10905;50.822;4.336;2023-07-09T07:16:45;25.50;99.90
21487;DHT22;10905;50.822;4.336;2023-07-09T07:19:11;25.60;99.90
21487;DHT22;10905;50.822;4.336;2023-07-09T07:21:36;25.60;99.90
21487;DHT22;10905;50.822;4.336;2023-07-09T07:24:02;25.70;99.90
21487;DHT22;10905;50.822;4.336;2023-07-09T07:26:29;25.80;99.90
21487;DHT22;10905;50.822;4.336;2023-07-09T07:28:54;26.00;99.90
21487;DHT22;10905;50.822;4.336;2023-07-09T07:31:20;26.10;99.90
21487;DHT22;10905;50.822;4.336;2023-07-09T07:33:45;26.20;99.90
21487;DHT22;10905;50.822;4.336;2023-07-09T07:36:11;26.10;99.90
21487;DHT22;10905;50.822;4.336;2023-07-09T07:38:37;26.00;99.90
21487;DHT22;10905;50.822;4.336;2023-07-09T07:41:02;26.00;99.90
21487;DHT22;10905;50.822;4.336;2023-07-09T07:43:28;26.00;99.90
21487;DHT22;10905;50.822;4.336;2023-07-09T07:45:54;26.00;99.90
21487;DHT22;10905;50.822;4.336;2023-07-09T07:48:20;26.10;99.90
21487;DHT22;10905;50.822;4.336;2023-07-09T07:50:49;26.20;99.90
21487;DHT22;10905;50.822;4.336;2023-07-09T07:53:15;26.20;99.90
21487;DHT22;10905;50.822;4.336;2023-07-09T07:55:41;26.20;99.90
21487;DHT22;10905;50.822;4.336;2023-07-09T07:58:12;26.10;99.90
21487;DHT22;10905;50.822;4.336;2023-07-09T08:00:39;26.30;99.90
21487;DHT22;10905;50.822;4.336;2023-07-09T08:03:05;26.40;99.90
21487;DHT22;10905;50.822;4.336;2023-07-09T08:05:31;26.40;99.90
21487;DHT22;10905;50.822;4.336;2023-07-09T08:07:56;26.40;99.90
21487;DHT22;10905;50.822;4.336;2023-07-09T08:10:22;26.60;99.90
21487;DHT22;10905;50.822;4.336;2023-07-09T08:12:48;26.60;99.90
21487;DHT22;10905;50.822;4.336;2023-07-09T08:15:14;26.60;99.90
21487;DHT22;10905;50.822;4.336;2023-07-09T08:17:39;26.80;99.90
21487;DHT22;10905;50.822;4.336;2023-07-09T08:20:06;26.60;99.90
21487;DHT22;10905;50.822;4.336;2023-07-09T08:22:31;26.70;99.90
21487;DHT22;10905;50.822;4.336;2023-07-09T08:24:57;26.70;99.90
21487;DHT22;10905;50.822;4.336;2023-07-09T08:27:22;26.90;99.90
21487;DHT22;10905;50.822;4.336;2023-07-09T08:29:48;26.70;99.90
21487;DHT22;10905;50.822;4.336;2023-07-09T08:32:14;26.60;99.90
21487;DHT22;10905;50.822;4.336;2023-07-09T08:34:41;26.50;99.90
21487;DHT22;10905;50.822;4.336;2023-07-09T08:37:08;26.60;99.90
21487;DHT22;10905;50.822;4.336;2023-07-09T08:39:33;26.70;99.90
21487;DHT22;10905;50.822;4.336;2023-07-09T08:42:04;26.80;99.90
21487;DHT22;10905;50.822;4.336;2023-07-09T08:47:47;27.10;99.90
21487;DHT22;10905;50.822;4.336;2023-07-09T08:50:23;27.40;99.90
21487;DHT22;10905;50.822;4.336;2023-07-09T08:52:51;27.60;99.90
21487;DHT22;10905;50.822;4.336;2023-07-09T08:55:18;27.90;99.90
21487;DHT22;10905;50.822;4.336;2023-07-09T08:57:47;27.90;99.90
21487;DHT22;10905;50.822;4.336;2023-07-09T09:00:30;28.00;99.90
21487;DHT22;10905;50.822;4.336;2023-07-09T09:03:10;28.10;99.90
21487;DHT22;10905;50.822;4.336;2023-07-09T09:05:42;28.20;99.90
21487;DHT22;10905;50.822;4.336;2023-07-09T09:11:08;28.30;99.90
21487;DHT22;10905;50.822;4.336;2023-07-09T09:13:36;28.20;99.90
21487;DHT22;10905;50.822;4.336;2023-07-09T09:16:10;28.30;99.90
21487;DHT22;10905;50.822;4.336;2023-07-09T09:18:42;28.30;99.90
21487;DHT22;10905;50.822;4.336;2023-07-09T09:21:32;28.30;99.90
21487;DHT22;10905;50.822;4.336;2023-07-09T09:24:22;28.40;99.90
21487;DHT22;10905;50.822;4.336;2023-07-09T09:26:52;28.50;99.90
21487;DHT22;10905;50.822;4.336;2023-07-09T09:29:18;28.50;99.90
21487;DHT22;10905;50.822;4.336;2023-07-09T09:31:48;28.30;99.90
21487;DHT22;10905;50.822;4.336;2023-07-09T09:34:19;28.40;99.90
21487;DHT22;10905;50.822;4.336;2023-07-09T09:36:45;28.60;99.90
21487;DHT22;10905;50.822;4.336;2023-07-09T09:39:10;28.60;99.90
21487;DHT22;10905;50.822;4.336;2023-07-09T09:41:37;28.70;99.90
21487;DHT22;10905;50.822;4.336;2023-07-09T09:44:04;28.70;99.90
21487;DHT22;10905;50.822;4.336;2023-07-09T09:46:31;28.70;99.90
21487;DHT22;10905;50.822;4.336;2023-07-09T09:49:02;28.80;99.90
21487;DHT22;10905;50.822;4.336;2023-07-09T09:51:28;28.90;99.90
21487;DHT22;10905;50.822;4.336;2023-07-09T09:53:59;29.00;99.90
21487;DHT22;10905;50.822;4.336;2023-07-09T09:56:28;29.10;99.90
21487;DHT22;10905;50.822;4.336;2023-07-09T09:58:55;29.10;99.90
21487;DHT22;10905;50.822;4.336;2023-07-09T10:01:35;29.10;99.90
21487;DHT22;10905;50.822;4.336;2023-07-09T10:04:04;29.30;99.90
21487;DHT22;10905;50.822;4.336;2023-07-09T10:06:38;29.40;99.90
21487;DHT22;10905;50.822;4.336;2023-07-09T10:12:17;29.40;99.90
21487;DHT22;10905;50.822;4.336;2023-07-09T10:17:23;29.70;99.90
21487;DHT22;10905;50.822;4.336;2023-07-09T10:19:56;29.80;99.90
21487;DHT22;10905;50.822;4.336;2023-07-09T10:37:47;29.40;99.90
21487;DHT22;10905;50.822;4.336;2023-07-09T10:40:33;29.50;99.90
21487;DHT22;10905;50.822;4.336;2023-07-09T10:43:03;29.50;99.90
21487;DHT22;10905;50.822;4.336;2023-07-09T10:45:33;29.50;99.90
21487;DHT22;10905;50.822;4.336;2023-07-09T10:48:10;29.40;99.90
21487;DHT22;10905;50.822;4.336;2023-07-09T10:50:41;29.30;99.90
21487;DHT22;10905;50.822;4.336;2023-07-09T10:56:08;28.80;99.90
21487;DHT22;10905;50.822;4.336;2023-07-09T11:01:31;28.70;99.90
21487;DHT22;10905;50.822;4.336;2023-07-09T11:04:05;28.70;99.90
21487;DHT22;10905;50.822;4.336;2023-07-09T11:06:33;28.70;99.90
21487;DHT22;10905;50.822;4.336;2023-07-09T11:09:01;28.70;99.90
21487;DHT22;10905;50.822;4.336;2023-07-09T11:11:40;28.60;99.90
21487;DHT22;10905;50.822;4.336;2023-07-09T11:14:19;28.60;99.90
21487;DHT22;10905;50.822;4.336;2023-07-09T11:16:47;28.30;99.90
21487;DHT22;10905;50.822;4.336;2023-07-09T11:19:17;28.20;99.90
21487;DHT22;10905;50.822;4.336;2023-07-09T11:22:04;28.40;99.90
21487;DHT22;10905;50.822;4.336;2023-07-09T11:24:52;28.50;99.90
21487;DHT22;10905;50.822;4.336;2023-07-09T11:27:23;28.60;99.90
21487;DHT22;10905;50.822;4.336;2023-07-09T11:30:18;28.30;99.90
21487;DHT22;10905;50.822;4.336;2023-07-09T11:32:47;28.20;99.90
21487;DHT22;10905;50.822;4.336;2023-07-09T11:35:22;28.00;99.90
21487;DHT22;10905;50.822;4.336;2023-07-09T11:37:48;27.80;99.90
21487;DHT22;10905;50.822;4.336;2023-07-09T11:40:15;27.80;99.90
21487;DHT22;10905;50.822;4.336;2023-07-09T11:42:55;27.80;99.90
21487;DHT22;10905;50.822;4.336;2023-07-09T11:45:26;27.70;99.90
21487;DHT22;10905;50.822;4.336;2023-07-09T11:50:46;27.50;99.90
21487;DHT22;10905;50.822;4.336;2023-07-09T11:53:41;27.40;99.90
21487;DHT22;10905;50.822;4.336;2023-07-09T11:56:08;27.20;99.90
21487;DHT22;10905;50.822;4.336;2023-07-09T11:58:33;27.10;99.90
21487;DHT22;10905;50.822;4.336;2023-07-09T12:01:00;27.10;99.90
21487;DHT22;10905;50.822;4.336;2023-07-09T12:03:35;27.10;99.90
21487;DHT22;10905;50.822;4.336;2023-07-09T12:06:23;27.00;99.90
21487;DHT22;10905;50.822;4.336;2023-07-09T12:08:50;26.80;99.90
21487;DHT22;10905;50.822;4.336;2023-07-09T12:11:31;26.70;99.90
21487;DHT22;10905;50.822;4.336;2023-07-09T12:14:08;26.60;99.90
21487;DHT22;10905;50.822;4.336;2023-07-09T12:16:38;26.60;99.90
21487;DHT22;10905;50.822;4.336;2023-07-09T12:19:04;26.60;99.90
21487;DHT22;10905;50.822;4.336;2023-07-09T12:21:30;26.50;99.90
21487;DHT22;10905;50.822;4.336;2023-07-09T12:23:57;26.30;99.90
21487;DHT22;10905;50.822;4.336;2023-07-09T12:26:22;26.00;99.90
21487;DHT22;10905;50.822;4.336;2023-07-09T12:28:57;25.70;99.90
21487;DHT22;10905;50.822;4.336;2023-07-09T12:31:28;25.40;99.90
21487;DHT22;10905;50.822;4.336;2023-07-09T12:33:55;25.10;99.90
21487;DHT22;10905;50.822;4.336;2023-07-09T12:36:24;24.70;99.90
21487;DHT22;10905;50.822;4.336;2023-07-09T12:38:52;24.50;99.90
21487;DHT22;10905;50.822;4.336;2023-07-09T12:41:42;24.20;99.90
21487;DHT22;10905;50.822;4.336;2023-07-09T12:44:29;24.00;99.90
21487;DHT22;10905;50.822;4.336;2023-07-09T12:46:57;23.90;99.90
21487;DHT22;10905;50.822;4.336;2023-07-09T12:51:48;23.70;99.90
21487;DHT22;10905;50.822;4.336;2023-07-09T12:54:17;23.70;99.90
21487;DHT22;10905;50.822;4.336;2023-07-09T12:56:43;23.80;99.90
21487;DHT22;10905;50.822;4.336;2023-07-09T12:59:28;23.90;99.90
21487;DHT22;10905;50.822;4.336;2023-07-09T13:02:17;24.00;99.90
21487;DHT22;10905;50.822;4.336;2023-07-09T13:04:43;24.10;99.90
21487;DHT22;10905;50.822;4.336;2023-07-09T13:07:39;24.10;99.90
21487;DHT22;10905;50.822;4.336;2023-07-09T13:10:24;24.10;99.90
21487;DHT22;10905;50.822;4.336;2023-07-09T13:13:04;24.00;99.90
21487;DHT22;10905;50.822;4.336;2023-07-09T13:15:39;24.10;99.90
21487;DHT22;10905;50.822;4.336;2023-07-09T13:18:06;24.10;99.90
21487;DHT22;10905;50.822;4.336;2023-07-09T13:20:35;24.10;99.90
21487;DHT22;10905;50.822;4.336;2023-07-09T13:23:09;24.10;99.90
21487;DHT22;10905;50.822;4.336;2023-07-09T13:25:35;24.20;99.90
21487;DHT22;10905;50.822;4.336;2023-07-09T13:28:01;24.20;99.90
21487;DHT22;10905;50.822;4.336;2023-07-09T13:30:27;24.20;99.90
21487;DHT22;10905;50.822;4.336;2023-07-09T13:32:52;24.10;99.90
21487;DHT22;10905;50.822;4.336;2023-07-09T13:35:19;24.10;99.90
21487;DHT22;10905;50.822;4.336;2023-07-09T13:37:45;24.10;99.90
21487;DHT22;10905;50.822;4.336;2023-07-09T13:40:14;24.10;99.90
21487;DHT22;10905;50.822;4.336;2023-07-09T13:42:41;24.30;99.90
21487;DHT22;10905;50.822;4.336;2023-07-09T13:45:24;24.30;99.90
21487;DHT22;10905;50.822;4.336;2023-07-09T13:47:53;24.40;99.90
21487;DHT22;10905;50.822;4.336;2023-07-09T13:50:19;24.60;99.90
21487;DHT22;10905;50.822;4.336;2023-07-09T13:52:45;24.70;99.90
21487;DHT22;10905;50.822;4.336;2023-07-09T13:55:22;24.70;99.90
21487;DHT22;10905;50.822;4.336;2023-07-09T13:57:49;24.70;99.90
21487;DHT22;10905;50.822;4.336;2023-07-09T14:00:15;24.90;99.90
21487;DHT22;10905;50.822;4.336;2023-07-09T14:02:42;25.20;99.90
21487;DHT22;10905;50.822;4.336;2023-07-09T14:05:11;25.60;99.90
21487;DHT22;10905;50.822;4.336;2023-07-09T14:07:39;25.80;99.90
21487;DHT22;10905;50.822;4.336;2023-07-09T14:10:09;26.30;99.90
21487;DHT22;10905;50.822;4.336;2023-07-09T14:12:38;26.40;99.90
21487;DHT22;10905;50.822;4.336;2023-07-09T14:15:17;26.60;99.90
21487;DHT22;10905;50.822;4.336;2023-07-09T14:17:43;26.70;99.90
21487;DHT22;10905;50.822;4.336;2023-07-09T14:20:13;26.90;99.90
21487;DHT22;10905;50.822;4.336;2023-07-09T14:22:40;27.00;99.90
21487;DHT22;10905;50.822;4.336;2023-07-09T14:25:20;27.30;99.90
21487;DHT22;10905;50.822;4.336;2023-07-09T14:27:46;27.60;99.90
21487;DHT22;10905;50.822;4.336;2023-07-09T14:30:15;27.80;99.90
21487;DHT22;10905;50.822;4.336;2023-07-09T14:32:41;27.80;99.90
21487;DHT22;10905;50.822;4.336;2023-07-09T14:35:17;27.70;99.90
21487;DHT22;10905;50.822;4.336;2023-07-09T14:37:44;27.50;99.90
21487;DHT22;10905;50.822;4.336;2023-07-09T14:40:11;27.40;99.90
21487;DHT22;10905;50.822;4.336;2023-07-09T14:42:40;27.50;99.90
21487;DHT22;10905;50.822;4.336;2023-07-09T14:45:17;27.60;99.90
21487;DHT22;10905;50.822;4.336;2023-07-09T14:47:43;27.60;99.90
21487;DHT22;10905;50.822;4.336;2023-07-09T14:50:09;27.60;99.90
21487;DHT22;10905;50.822;4.336;2023-07-09T14:52:35;27.60;99.90
21487;DHT22;10905;50.822;4.336;2023-07-09T14:55:01;27.70;99.90
21487;DHT22;10905;50.822;4.336;2023-07-09T14:57:27;27.90;99.90
21487;DHT22;10905;50.822;4.336;2023-07-09T14:59:56;28.10;99.90
21487;DHT22;10905;50.822;4.336;2023-07-09T15:02:33;28.20;99.90
21487;DHT22;10905;50.822;4.336;2023-07-09T15:05:01;28.10;99.90
21487;DHT22;10905;50.822;4.336;2023-07-09T15:07:27;28.30;99.90
21487;DHT22;10905;50.822;4.336;2023-07-09T15:09:56;28.50;99.90
21487;DHT22;10905;50.822;4.336;2023-07-09T15:12:30;28.40;99.90
21487;DHT22;10905;50.822;4.336;2023-07-09T15:15:03;28.40;99.90
21487;DHT22;10905;50.822;4.336;2023-07-09T15:17:31;28.60;99.90
21487;DHT22;10905;50.822;4.336;2023-07-09T15:19:57;28.60;99.90
21487;DHT22;10905;50.822;4.336;2023-07-09T15:22:33;28.70;99.90
21487;DHT22;10905;50.822;4.336;2023-07-09T15:24:59;28.70;99.90
21487;DHT22;10905;50.822;4.336;2023-07-09T15:27:25;28.70;99.90
21487;DHT22;10905;50.822;4.336;2023-07-09T15:29:51;28.70;99.90
21487;DHT22;10905;50.822;4.336;2023-07-09T15:32:17;28.60;99.90
21487;DHT22;10905;50.822;4.336;2023-07-09T15:34:42;28.60;99.90
21487;DHT22;10905;50.822;4.336;2023-07-09T15:37:13;28.70;99.90
21487;DHT22;10905;50.822;4.336;2023-07-09T15:39:40;28.80;99.90
21487;DHT22;10905;50.822;4.336;2023-07-09T15:42:13;28.90;99.90
21487;DHT22;10905;50.822;4.336;2023-07-09T15:44:39;29.00;99.90
21487;DHT22;10905;50.822;4.336;2023-07-09T15:47:08;29.10;99.90
21487;DHT22;10905;50.822;4.336;2023-07-09T15:49:38;29.00;99.90
21487;DHT22;10905;50.822;4.336;2023-07-09T15:52:04;29.20;99.90
21487;DHT22;10905;50.822;4.336;2023-07-09T15:54:30;29.20;99.90
21487;DHT22;10905;50.822;4.336;2023-07-09T15:56:55;29.10;99.90
21487;DHT22;10905;50.822;4.336;2023-07-09T15:59:32;28.90;99.90
21487;DHT22;10905;50.822;4.336;2023-07-09T16:02:00;28.60;99.90
21487;DHT22;10905;50.822;4.336;2023-07-09T16:04:26;28.40;99.90
21487;DHT22;10905;50.822;4.336;2023-07-09T16:06:53;28.20;99.90
21487;DHT22;10905;50.822;4.336;2023-07-09T16:09:19;28.00;99.90
21487;DHT22;10905;50.822;4.336;2023-07-09T16:11:47;28.00;99.90
21487;DHT22;10905;50.822;4.336;2023-07-09T16:14:25;27.90;99.90
21487;DHT22;10905;50.822;4.336;2023-07-09T16:16:53;27.80;99.90
21487;DHT22;10905;50.822;4.336;2023-07-09T16:19:21;27.70;99.90